Time;durP1;ratioP1;P1;durP2;ratioP2;P2;SDS_P1;SDS_P2;PMS_P1;PMS_P2;Temp;Humidity;BMP_temperature;BMP_pressure;BME280_temperature;BME280_humidity;BME280_pressure;Samples;Min_cycle;Max_cycle;Signal;HPM_P1;HPM_P2
2023/08/09 00:01:27;;;;;;;;;;;;;;;17.08;61.58;97845.41;5104444;27;19935;-64
2023/08/09 00:04:15;;;;;;;;;;;;;;;16.99;62.69;97855.78;5122575;27;19928;-64
2023/08/09 00:07:03;;;;;;;;;;;;;;;16.91;63.27;97851.28;5121048;27;21800;-65
2023/08/09 00:09:51;;;;;;;;;;;;;;;16.90;63.29;97849.69;5115776;27;19927;-63
2023/08/09 00:12:39;;;;;;;;;;;;;;;16.76;64.67;97850.91;5124737;27;19942;-63
2023/08/09 00:15:29;;;;;;;;;;;;;;;16.70;65.04;97851.50;5121244;27;20421;-64
2023/08/09 00:18:17;;;;;;;;;;;;;;;16.60;66.72;97855.56;5115293;27;19930;-65
2023/08/09 00:21:07;;;;;;;;;;;;;;;16.61;67.26;97848.91;5103294;27;20010;-62
2023/08/09 00:23:56;;;;;;;;;;;;;;;16.59;67.03;97840.25;5113922;27;19931;-63
2023/08/09 00:26:44;;;;;;;;;;;;;;;16.58;68.31;97844.16;5086540;27;19938;-63
2023/08/09 00:29:32;;;;;;;;;;;;;;;16.44;69.33;97843.75;5085070;28;19966;-65
2023/08/09 00:32:21;;;;;;;;;;;;;;;16.39;70.25;97841.28;5091022;27;19955;-65
2023/08/09 00:35:10;;;;;;;;;;;;;;;16.31;70.05;97845.00;5108340;27;19932;-63
2023/08/09 00:38:00;;;;;;;;;;;;;;;16.31;71.31;97836.75;5107159;27;19928;-64
2023/08/09 00:40:48;;;;;;;;;;;;;;;16.22;71.59;97837.69;5114951;27;20495;-62
2023/08/09 00:43:36;;;;;;;;;;;;;;;16.19;72.02;97841.16;5107732;27;19934;-63
2023/08/09 00:46:24;;;;;;;;;;;;;;;16.16;72.79;97833.63;5081358;27;19928;-64
2023/08/09 00:49:14;;;;;;;;;;;;;;;16.18;73.33;97836.00;5098835;27;19927;-63
2023/08/09 00:52:03;;;;;;;;;;;;;;;16.20;73.77;97840.00;5100513;27;19924;-63
2023/08/09 00:54:51;;;;;;;;;;;;;;;16.23;74.41;97836.56;5109889;27;19928;-63
2023/08/09 00:57:40;;;;;;;;;;;;;;;16.25;74.53;97833.47;5086226;28;19931;-61
2023/08/09 01:00:28;;;;;;;;;;;;;;;16.22;74.74;97834.97;5108756;27;19931;-63
2023/08/09 01:03:16;;;;;;;;;;;;;;;16.22;75.38;97826.75;5097729;27;20057;-63
2023/08/09 01:06:09;;;;;;;;;;;;;;;16.18;75.49;97828.56;5104026;27;19927;-62
2023/08/09 01:08:59;;;;;;;;;;;;;;;16.08;76.34;97822.81;5093104;27;19935;-64
2023/08/09 01:11:49;;;;;;;;;;;;;;;16.08;76.42;97834.56;5118833;27;19924;-64
2023/08/09 01:14:39;;;;;;;;;;;;;;;16.11;75.90;97824.84;5100813;27;19939;-62
2023/08/09 01:17:28;;;;;;;;;;;;;;;15.96;76.16;97824.44;5101013;27;19930;-61
2023/08/09 01:20:16;;;;;;;;;;;;;;;15.91;76.55;97826.66;5120322;27;20521;-64
2023/08/09 01:23:07;;;;;;;;;;;;;;;15.94;77.31;97817.75;5101118;28;19924;-64
2023/08/09 01:25:56;;;;;;;;;;;;;;;16.00;77.55;97831.97;5094852;28;19930;-63
2023/08/09 01:28:44;;;;;;;;;;;;;;;15.89;78.57;97820.72;5093088;28;20369;-63
2023/08/09 01:31:33;;;;;;;;;;;;;;;15.95;78.56;97822.06;5111710;27;20572;-64
2023/08/09 01:34:22;;;;;;;;;;;;;;;15.92;78.42;97807.09;5097862;28;19935;-67
2023/08/09 01:37:12;;;;;;;;;;;;;;;15.88;79.07;97810.91;5095034;28;19924;-64
2023/08/09 01:40:06;;;;;;;;;;;;;;;15.96;78.83;97796.25;5096439;28;20049;-64
2023/08/09 01:42:56;;;;;;;;;;;;;;;15.91;78.91;97810.19;5093711;28;20445;-62
2023/08/09 01:45:45;;;;;;;;;;;;;;;15.86;78.68;97803.03;5099397;27;19924;-62
2023/08/09 01:48:35;;;;;;;;;;;;;;;15.93;79.05;97799.72;5098262;28;19923;-61
2023/08/09 01:51:23;;;;;;;;;;;;;;;15.95;79.24;97794.66;5104162;27;20609;-62
2023/08/09 01:54:12;;;;;;;;;;;;;;;15.84;79.25;97790.84;5097895;28;19928;-62
2023/08/09 01:57:02;;;;;;;;;;;;;;;15.88;79.79;97789.00;5089354;28;20424;-64
2023/08/09 01:59:52;;;;;;;;;;;;;;;15.74;78.91;97780.38;5094904;28;19959;-63
2023/08/09 02:03:06;;;;;;;;;;;;;;;15.72;79.48;97791.69;5122309;27;19928;-63
2023/08/09 02:05:55;;;;;;;;;;;;;;;15.76;80.00;97775.34;5125965;27;20024;-62
2023/08/09 02:08:45;;;;;;;;;;;;;;;15.68;79.86;97777.88;5097337;28;19935;-63
2023/08/09 02:11:33;;;;;;;;;;;;;;;15.61;80.40;97779.59;5099298;28;20415;-62
2023/08/09 02:14:22;;;;;;;;;;;;;;;15.66;80.68;97776.66;5096851;28;19948;-63
2023/08/09 02:17:11;;;;;;;;;;;;;;;15.63;80.65;97778.13;5096324;28;19963;-62
2023/08/09 02:19:59;;;;;;;;;;;;;;;15.65;81.07;97773.09;5100778;27;19929;-63
2023/08/09 02:22:48;;;;;;;;;;;;;;;15.60;80.13;97770.56;5102870;28;20031;-62
2023/08/09 02:25:37;;;;;;;;;;;;;;;15.60;80.44;97765.09;5100521;27;19924;-63
2023/08/09 02:28:25;;;;;;;;;;;;;;;15.61;80.78;97763.16;5110524;27;19951;-63
2023/08/09 02:31:14;;;;;;;;;;;;;;;15.53;81.05;97770.38;5125186;27;19931;-62
2023/08/09 02:34:04;;;;;;;;;;;;;;;15.63;80.46;97760.91;5103294;28;19924;-66
2023/08/09 02:36:52;;;;;;;;;;;;;;;15.58;81.06;97759.16;5129514;27;20789;-62
2023/08/09 02:39:42;;;;;;;;;;;;;;;15.55;81.13;97740.69;5094023;28;19924;-63
2023/08/09 02:42:31;;;;;;;;;;;;;;;15.53;80.98;97751.19;5097480;28;19924;-62
2023/08/09 02:45:19;;;;;;;;;;;;;;;15.47;81.23;97747.13;5102395;28;19952;-64
2023/08/09 02:48:08;;;;;;;;;;;;;;;15.41;81.37;97743.03;5103519;28;19930;-64
2023/08/09 02:50:58;;;;;;;;;;;;;;;15.50;81.33;97756.56;5103061;28;19950;-64
2023/08/09 02:53:59;;;;;;;;;;;;;;;15.49;81.51;97753.03;5102465;28;20015;-63
2023/08/09 02:56:48;;;;;;;;;;;;;;;15.47;81.23;97758.06;5101083;28;19936;-64
2023/08/09 02:59:38;;;;;;;;;;;;;;;15.43;81.81;97759.91;5099449;27;20026;-64
2023/08/09 03:02:26;;;;;;;;;;;;;;;15.41;82.20;97759.47;5093402;28;19935;-66
2023/08/09 03:05:14;;;;;;;;;;;;;;;15.44;81.82;97764.22;5127393;27;19924;-66
2023/08/09 03:08:05;;;;;;;;;;;;;;;15.43;82.17;97770.84;5119374;27;19928;-63
2023/08/09 03:10:53;;;;;;;;;;;;;;;15.37;81.57;97767.56;5100897;28;20077;-62
2023/08/09 03:13:42;;;;;;;;;;;;;;;15.27;82.54;97770.78;5089175;28;19924;-64
2023/08/09 03:16:31;;;;;;;;;;;;;;;15.34;82.20;97759.22;5129970;27;21031;-61
2023/08/09 03:19:19;;;;;;;;;;;;;;;15.27;82.46;97761.75;5092766;28;19955;-62
2023/08/09 03:22:09;;;;;;;;;;;;;;;15.36;82.57;97770.66;5098204;28;19928;-62
2023/08/09 03:24:59;;;;;;;;;;;;;;;15.34;81.96;97765.53;5100857;28;19934;-64
2023/08/09 03:27:47;;;;;;;;;;;;;;;15.31;81.78;97771.69;5129361;27;19950;-63
2023/08/09 03:30:38;;;;;;;;;;;;;;;15.33;82.36;97768.59;5095924;27;19927;-63
2023/08/09 03:33:27;;;;;;;;;;;;;;;15.33;82.28;97777.59;5096229;28;19923;-63
2023/08/09 03:36:15;;;;;;;;;;;;;;;15.32;82.22;97767.00;5102264;28;20046;-62
2023/08/09 03:39:06;;;;;;;;;;;;;;;15.33;82.54;97757.63;5094162;28;20365;-62
2023/08/09 03:41:55;;;;;;;;;;;;;;;15.33;82.33;97765.84;5100928;28;20010;-62
2023/08/09 03:44:44;;;;;;;;;;;;;;;15.32;82.32;97767.78;5128822;27;19935;-62
2023/08/09 03:47:32;;;;;;;;;;;;;;;15.34;82.52;97765.53;5099304;28;19924;-62
2023/08/09 03:50:21;;;;;;;;;;;;;;;15.31;82.30;97759.94;5098769;28;19927;-64
2023/08/09 03:53:09;;;;;;;;;;;;;;;15.36;82.22;97762.44;5098762;28;19924;-63
2023/08/09 03:56:00;;;;;;;;;;;;;;;15.33;82.35;97763.91;5094834;28;19932;-63
2023/08/09 03:58:52;;;;;;;;;;;;;;;15.38;82.31;97766.41;5129017;27;20061;-62
2023/08/09 04:01:41;;;;;;;;;;;;;;;15.37;82.18;97766.75;5127478;27;19978;-64
2023/08/09 04:04:29;;;;;;;;;;;;;;;15.39;82.34;97773.50;5097294;27;19972;-65
2023/08/09 04:07:17;;;;;;;;;;;;;;;15.42;81.97;97788.41;5100378;28;20535;-62
2023/08/09 04:10:06;;;;;;;;;;;;;;;15.44;82.17;97784.19;5100903;28;19927;-62
2023/08/09 04:12:54;;;;;;;;;;;;;;;15.42;81.55;97772.78;5102685;27;19966;-63
2023/08/09 04:15:44;;;;;;;;;;;;;;;15.40;82.47;97783.31;5093401;28;20448;-65
2023/08/09 04:18:32;;;;;;;;;;;;;;;15.37;82.51;97766.75;5129476;27;19935;-62
2023/08/09 04:21:20;;;;;;;;;;;;;;;15.37;82.79;97774.97;5105853;27;19924;-62
2023/08/09 04:24:09;;;;;;;;;;;;;;;15.37;82.71;97772.25;5128482;27;19923;-63
2023/08/09 04:26:59;;;;;;;;;;;;;;;15.42;83.00;97770.06;5103825;27;20022;-62
2023/08/09 04:29:48;;;;;;;;;;;;;;;15.36;82.97;97767.91;5133419;27;20413;-63
2023/08/09 04:32:38;;;;;;;;;;;;;;;15.37;83.37;97764.81;5108725;27;19923;-62
2023/08/09 04:35:26;;;;;;;;;;;;;;;15.40;82.98;97775.09;5122173;27;19927;-63
2023/08/09 04:38:15;;;;;;;;;;;;;;;15.46;81.90;97778.38;5106563;27;19927;-66
2023/08/09 04:41:03;;;;;;;;;;;;;;;15.43;82.36;97779.84;5099822;27;19935;-64
2023/08/09 04:43:52;;;;;;;;;;;;;;;15.36;83.04;97778.84;5135758;27;19923;-60
2023/08/09 04:46:41;;;;;;;;;;;;;;;15.31;83.11;97782.63;5118790;27;19970;-62
2023/08/09 04:49:30;;;;;;;;;;;;;;;15.30;82.85;97782.97;5108712;27;19931;-62
2023/08/09 04:52:18;;;;;;;;;;;;;;;15.30;83.04;97781.03;5110833;27;19962;-64
2023/08/09 04:55:07;;;;;;;;;;;;;;;15.27;83.50;97787.19;5121116;27;20353;-61
2023/08/09 04:57:55;;;;;;;;;;;;;;;15.22;83.59;97789.38;5120282;27;19931;-62
2023/08/09 05:00:44;;;;;;;;;;;;;;;15.25;83.51;97794.97;5122156;27;21880;-62
2023/08/09 05:03:32;;;;;;;;;;;;;;;15.22;84.77;97767.47;5104953;27;20385;-62
2023/08/09 05:06:22;;;;;;;;;;;;;;;15.27;84.67;97780.91;5100492;27;20380;-61
2023/08/09 05:09:10;;;;;;;;;;;;;;;15.34;84.19;97783.88;5117402;27;19975;-63
2023/08/09 05:11:59;;;;;;;;;;;;;;;15.29;84.45;97775.91;5116314;27;20009;-63
2023/08/09 05:14:47;;;;;;;;;;;;;;;15.33;84.80;97776.81;5118351;27;19931;-61
2023/08/09 05:17:35;;;;;;;;;;;;;;;15.27;85.19;97775.44;5139570;27;19928;-61
2023/08/09 05:20:23;;;;;;;;;;;;;;;15.35;84.77;97780.00;5124026;27;19930;-63
2023/08/09 05:23:13;;;;;;;;;;;;;;;15.33;84.70;97785.81;5117040;27;21010;-60
2023/08/09 05:26:01;;;;;;;;;;;;;;;15.34;84.05;97786.59;5119358;27;19931;-59
2023/08/09 05:28:50;;;;;;;;;;;;;;;15.34;84.68;97797.56;5120781;27;20308;-58
2023/08/09 05:31:38;;;;;;;;;;;;;;;15.34;84.38;97786.59;5099907;27;19924;-59
2023/08/09 05:34:27;;;;;;;;;;;;;;;15.28;84.94;97794.25;5107744;27;19939;-59
2023/08/09 05:37:15;;;;;;;;;;;;;;;15.30;84.82;97804.88;5116769;27;19976;-58
2023/08/09 05:40:05;;;;;;;;;;;;;;;15.31;84.92;97803.72;5124948;27;19927;-58
2023/08/09 05:42:54;;;;;;;;;;;;;;;15.34;84.98;97800.28;5116424;27;19931;-58
2023/08/09 05:45:44;;;;;;;;;;;;;;;15.33;84.74;97796.75;5117861;27;19931;-58
2023/08/09 05:48:33;;;;;;;;;;;;;;;15.35;84.87;97801.91;5117431;27;20545;-58
2023/08/09 05:51:21;;;;;;;;;;;;;;;15.41;85.34;97797.78;5115019;27;20279;-58
2023/08/09 05:54:10;;;;;;;;;;;;;;;15.36;84.82;97800.75;5118509;27;19951;-58
2023/08/09 05:57:00;;;;;;;;;;;;;;;15.34;84.93;97811.22;5114363;27;19923;-60
2023/08/09 05:59:49;;;;;;;;;;;;;;;15.32;85.22;97800.63;5105849;27;20018;-57
2023/08/09 06:02:37;;;;;;;;;;;;;;;15.33;84.98;97801.44;5118689;27;19927;-59
2023/08/09 06:05:26;;;;;;;;;;;;;;;15.36;84.96;97804.28;5107761;28;19931;-58
2023/08/09 06:08:14;;;;;;;;;;;;;;;15.33;85.02;97817.84;5113988;27;19935;-60
2023/08/09 06:11:03;;;;;;;;;;;;;;;15.40;84.72;97809.88;5097551;28;19927;-60
2023/08/09 06:13:52;;;;;;;;;;;;;;;15.38;84.89;97817.63;5111477;27;19931;-58
2023/08/09 06:16:43;;;;;;;;;;;;;;;15.35;84.91;97813.66;5126305;27;20296;-57
2023/08/09 06:19:32;;;;;;;;;;;;;;;15.40;85.37;97812.63;5124155;27;20308;-59
2023/08/09 06:22:21;;;;;;;;;;;;;;;15.43;85.52;97820.13;5117851;27;20015;-58
2023/08/09 06:25:09;;;;;;;;;;;;;;;15.45;85.50;97820.59;5115723;27;20076;-59
2023/08/09 06:27:57;;;;;;;;;;;;;;;15.46;85.52;97817.50;5114759;27;19935;-58
2023/08/09 06:30:47;;;;;;;;;;;;;;;15.51;85.35;97808.25;5116494;27;19959;-57
2023/08/09 06:33:40;;;;;;;;;;;;;;;15.59;85.55;97820.19;5116849;27;20074;-58
2023/08/09 06:36:29;;;;;;;;;;;;;;;15.62;85.59;97822.25;5114894;27;20076;-58
2023/08/09 06:39:17;;;;;;;;;;;;;;;15.64;85.61;97829.00;5122355;27;20007;-58
2023/08/09 06:42:05;;;;;;;;;;;;;;;15.62;85.80;97827.75;5118017;28;19931;-58
2023/08/09 06:44:55;;;;;;;;;;;;;;;15.66;85.39;97815.78;5116948;27;19927;-58
2023/08/09 06:47:44;;;;;;;;;;;;;;;15.63;85.27;97818.41;5103193;28;20431;-58
2023/08/09 06:50:33;;;;;;;;;;;;;;;15.73;85.32;97825.34;5125424;27;19931;-58
2023/08/09 06:53:21;;;;;;;;;;;;;;;15.70;85.16;97816.66;5121887;27;19930;-58
2023/08/09 06:56:09;;;;;;;;;;;;;;;15.77;84.55;97818.03;5119055;27;19928;-58
2023/08/09 06:58:57;;;;;;;;;;;;;;;15.74;83.99;97821.47;5114641;27;20415;-60
2023/08/09 07:01:48;;;;;;;;;;;;;;;15.71;83.62;97814.72;5122080;27;20052;-58
2023/08/09 07:04:38;;;;;;;;;;;;;;;15.70;83.47;97818.59;5117511;27;20577;-59
2023/08/09 07:07:26;;;;;;;;;;;;;;;15.75;83.52;97812.09;5117395;27;19927;-61
2023/08/09 07:10:15;;;;;;;;;;;;;;;15.77;83.49;97820.78;5118771;27;19928;-57
2023/08/09 07:13:03;;;;;;;;;;;;;;;15.79;84.08;97824.75;5125679;27;19928;-59
2023/08/09 07:15:54;;;;;;;;;;;;;;;15.76;83.11;97825.44;5129961;27;20324;-58
2023/08/09 07:18:42;;;;;;;;;;;;;;;15.81;82.98;97827.13;5131216;27;19924;-59
2023/08/09 07:21:31;;;;;;;;;;;;;;;15.77;83.27;97831.72;5104540;27;20387;-59
2023/08/09 07:24:20;;;;;;;;;;;;;;;15.70;82.89;97833.09;5118711;27;19927;-58
2023/08/09 07:27:08;;;;;;;;;;;;;;;15.70;83.47;97833.09;5121611;27;19931;-58
2023/08/09 07:29:56;;;;;;;;;;;;;;;15.71;83.22;97834.72;5125675;27;19927;-58
2023/08/09 07:32:44;;;;;;;;;;;;;;;15.71;83.18;97839.38;5116850;27;20316;-58
2023/08/09 07:35:32;;;;;;;;;;;;;;;15.74;83.15;97848.84;5123479;27;20603;-59
2023/08/09 07:38:22;;;;;;;;;;;;;;;15.74;83.38;97851.59;5122092;27;20030;-60
2023/08/09 07:41:11;;;;;;;;;;;;;;;15.79;83.21;97849.41;5119461;27;19954;-58
2023/08/09 07:44:00;;;;;;;;;;;;;;;15.80;83.28;97847.47;5111359;27;20325;-58
2023/08/09 07:46:48;;;;;;;;;;;;;;;15.83;83.15;97842.09;5116517;27;19927;-59
2023/08/09 07:49:36;;;;;;;;;;;;;;;15.92;83.31;97844.66;5120966;27;19979;-58
2023/08/09 07:52:24;;;;;;;;;;;;;;;15.91;83.00;97846.63;5126800;27;19931;-58
2023/08/09 07:55:14;;;;;;;;;;;;;;;15.97;83.17;97858.13;5106352;27;19930;-58
2023/08/09 07:58:02;;;;;;;;;;;;;;;16.00;82.79;97856.66;5124858;27;19923;-61
2023/08/09 08:00:50;;;;;;;;;;;;;;;16.04;82.56;97861.09;5126546;27;20486;-57
2023/08/09 08:03:39;;;;;;;;;;;;;;;16.13;82.79;97855.44;5116477;27;19934;-59
2023/08/09 08:06:27;;;;;;;;;;;;;;;16.10;82.09;97867.13;5105836;27;19927;-58
2023/08/09 08:09:16;;;;;;;;;;;;;;;16.16;82.57;97874.75;5115617;27;20558;-57
2023/08/09 08:12:06;;;;;;;;;;;;;;;16.14;81.58;97878.94;5120791;27;19924;-57
2023/08/09 08:15:00;;;;;;;;;;;;;;;16.11;81.61;97864.03;5120440;27;19928;-59
2023/08/09 08:17:51;;;;;;;;;;;;;;;16.25;81.90;97885.56;5118543;27;20019;-59
2023/08/09 08:20:39;;;;;;;;;;;;;;;16.22;82.35;97886.25;5115154;27;20006;-58
2023/08/09 08:23:27;;;;;;;;;;;;;;;16.31;81.58;97897.06;5118480;27;19962;-59
2023/08/09 08:26:16;;;;;;;;;;;;;;;16.26;82.07;97886.34;5112679;27;19923;-59
2023/08/09 08:29:06;;;;;;;;;;;;;;;16.29;82.17;97886.44;5122842;27;19931;-58
2023/08/09 08:31:54;;;;;;;;;;;;;;;16.26;81.55;97891.84;5121309;27;20022;-59
2023/08/09 08:34:42;;;;;;;;;;;;;;;16.27;81.03;97896.16;5107383;27;19970;-58
2023/08/09 08:37:31;;;;;;;;;;;;;;;16.33;81.70;97892.03;5118125;27;20708;-57
2023/08/09 08:40:21;;;;;;;;;;;;;;;16.34;81.60;97893.63;5129228;27;19931;-58
2023/08/09 08:43:09;;;;;;;;;;;;;;;16.31;81.03;97892.38;5115096;27;19927;-59
2023/08/09 08:45:59;;;;;;;;;;;;;;;16.33;81.24;97897.50;5128345;27;20323;-58
2023/08/09 08:48:48;;;;;;;;;;;;;;;16.32;81.06;97895.91;5101394;27;19924;-59
2023/08/09 08:51:37;;;;;;;;;;;;;;;16.31;81.03;97894.34;5113960;27;19923;-58
2023/08/09 08:54:25;;;;;;;;;;;;;;;16.38;80.39;97894.53;5117271;27;19935;-62
2023/08/09 08:57:16;;;;;;;;;;;;;;;16.36;80.11;97900.38;5111919;27;20000;-58
2023/08/09 09:00:08;;;;;;;;;;;;;;;16.37;80.37;97896.47;5121315;27;19927;-59
2023/08/09 09:03:01;;;;;;;;;;;;;;;16.37;80.28;97901.94;5127988;27;20336;-57
2023/08/09 09:05:49;;;;;;;;;;;;;;;16.36;80.60;97905.06;5121858;27;19958;-59
2023/08/09 09:08:41;;;;;;;;;;;;;;;16.39;80.33;97912.56;5102201;27;19927;-58
2023/08/09 09:11:29;;;;;;;;;;;;;;;16.41;80.69;97913.03;5108481;27;19938;-60
2023/08/09 09:14:18;;;;;;;;;;;;;;;16.47;80.11;97919.84;5119314;27;20048;-59
2023/08/09 09:17:09;;;;;;;;;;;;;;;16.41;79.69;97908.34;5121108;27;19927;-59
2023/08/09 09:19:59;;;;;;;;;;;;;;;16.39;78.77;97909.81;5099457;28;19952;-58
2023/08/09 09:22:48;;;;;;;;;;;;;;;16.42;78.84;97911.88;5096395;28;20467;-58
2023/08/09 09:25:36;;;;;;;;;;;;;;;16.37;79.53;97910.19;5102659;28;20360;-58
2023/08/09 09:28:24;;;;;;;;;;;;;;;16.38;80.41;97913.72;5096945;28;19931;-58
2023/08/09 09:31:13;;;;;;;;;;;;;;;16.35;81.17;97914.41;5097099;28;19924;-59
2023/08/09 09:34:02;;;;;;;;;;;;;;;16.36;81.85;97907.78;5103066;28;20024;-57
2023/08/09 09:36:55;;;;;;;;;;;;;;;16.36;82.61;97910.53;5094579;28;19927;-56
2023/08/09 09:39:45;;;;;;;;;;;;;;;16.38;83.35;97916.47;5096006;28;20381;-57
2023/08/09 09:42:34;;;;;;;;;;;;;;;16.38;83.73;97919.19;5098715;28;19931;-58
2023/08/09 09:45:24;;;;;;;;;;;;;;;16.31;83.90;97917.06;5098777;28;19928;-58
2023/08/09 09:48:16;;;;;;;;;;;;;;;16.33;84.52;97916.69;5099066;28;20440;-58
2023/08/09 09:51:05;;;;;;;;;;;;;;;16.32;84.96;97915.91;5094125;27;19924;-60
2023/08/09 09:53:54;;;;;;;;;;;;;;;16.36;84.77;97913.28;5097798;28;19923;-59
2023/08/09 09:56:43;;;;;;;;;;;;;;;16.37;84.74;97909.38;5098033;28;19931;-60
2023/08/09 09:59:31;;;;;;;;;;;;;;;16.39;84.33;97915.31;5092390;28;19928;-58
2023/08/09 10:02:19;;;;;;;;;;;;;;;16.45;84.83;97902.94;5099710;28;19942;-60
2023/08/09 10:05:10;;;;;;;;;;;;;;;16.50;84.97;97908.97;5096955;28;19931;-58
2023/08/09 10:07:58;;;;;;;;;;;;;;;16.59;84.63;97899.78;5100538;28;20012;-58
2023/08/09 10:10:48;;;;;;;;;;;;;;;16.60;84.07;97904.91;5099542;28;20405;-59
2023/08/09 10:13:36;;;;;;;;;;;;;;;16.63;84.54;97906.97;5100188;28;19928;-59
2023/08/09 10:16:24;;;;;;;;;;;;;;;16.70;84.41;97906.34;5093645;28;19930;-58
2023/08/09 10:19:16;;;;;;;;;;;;;;;16.75;84.24;97909.66;5103753;28;20395;-59
2023/08/09 10:22:06;;;;;;;;;;;;;;;16.86;83.63;97912.69;5122140;27;19955;-60
2023/08/09 10:24:57;;;;;;;;;;;;;;;16.84;83.03;97917.75;5120110;27;19931;-58
2023/08/09 10:27:53;;;;;;;;;;;;;;;16.88;82.06;97906.84;5121247;28;20889;-59
2023/08/09 10:30:45;;;;;;;;;;;;;;;16.94;82.19;97910.94;5125442;27;19931;-59
2023/08/09 10:33:33;;;;;;;;;;;;;;;17.04;81.42;97915.88;5110480;27;19928;-59
2023/08/09 10:36:31;;;;;;;;;;;;;;;16.98;80.58;97912.59;5106005;27;19927;-59
2023/08/09 10:39:19;;;;;;;;;;;;;;;17.08;81.08;97921.47;5124290;27;19927;-58
2023/08/09 10:42:08;;;;;;;;;;;;;;;17.06;79.65;97919.09;5125554;27;19929;-60
2023/08/09 10:45:04;;;;;;;;;;;;;;;17.03;79.13;97911.56;5135896;27;19923;-59
2023/08/09 10:47:52;;;;;;;;;;;;;;;17.05;79.02;97909.28;5118285;27;19927;-58
2023/08/09 10:50:40;;;;;;;;;;;;;;;17.00;78.90;97921.31;5119419;27;20207;-58
2023/08/09 10:53:50;;;;;;;;;;;;;;;17.01;79.14;97917.41;5116256;27;21079;-57
2023/08/09 10:56:44;;;;;;;;;;;;;;;16.99;78.85;97918.88;5120206;27;19939;-58
2023/08/09 10:59:32;;;;;;;;;;;;;;;16.92;79.66;97924.22;5122773;27;19923;-58
2023/08/09 11:02:22;;;;;;;;;;;;;;;16.92;80.51;97910.47;5123602;27;20431;-59
2023/08/09 11:05:10;;;;;;;;;;;;;;;16.89;81.22;97920.22;5104521;27;19931;-58
2023/08/09 11:07:59;;;;;;;;;;;;;;;16.87;81.91;97921.72;5115957;27;19923;-57
2023/08/09 11:10:49;;;;;;;;;;;;;;;16.92;82.61;97924.22;5121845;27;20451;-58
2023/08/09 11:13:37;;;;;;;;;;;;;;;16.94;82.14;97922.72;5113641;27;20001;-58
2023/08/09 11:16:35;;;;;;;;;;;;;;;17.02;82.47;97924.47;5118145;27;20018;-58
2023/08/09 11:19:27;;;;;;;;;;;;;;;17.03;81.78;97919.78;5124722;27;19934;-58
2023/08/09 11:22:23;;;;;;;;;;;;;;;17.11;81.84;97920.78;5118216;27;19962;-59
2023/08/09 11:25:11;;;;;;;;;;;;;;;17.07;79.85;97917.13;5133076;27;20440;-58
2023/08/09 11:28:00;;;;;;;;;;;;;;;17.10;81.05;97914.50;5114952;27;19941;-58
2023/08/09 11:30:52;;;;;;;;;;;;;;;17.13;79.63;97919.25;5121713;27;20610;-58
2023/08/09 11:33:40;;;;;;;;;;;;;;;17.17;80.40;97924.84;5105414;27;19958;-58
2023/08/09 11:36:30;;;;;;;;;;;;;;;17.15;81.03;97925.22;5119550;27;20018;-58
2023/08/09 11:39:20;;;;;;;;;;;;;;;17.21;81.44;97936.72;5122919;27;19924;-58
2023/08/09 11:42:08;;;;;;;;;;;;;;;17.19;81.72;97931.56;5110388;27;20329;-60
2023/08/09 11:44:57;;;;;;;;;;;;;;;17.27;83.22;97930.59;5122794;27;19935;-58
2023/08/09 11:47:48;;;;;;;;;;;;;;;17.31;82.90;97929.88;5138746;27;19955;-59
2023/08/09 11:50:36;;;;;;;;;;;;;;;17.34;82.77;97935.47;5120876;27;20063;-58
2023/08/09 11:53:26;;;;;;;;;;;;;;;17.34;81.86;97938.22;5129074;27;19927;-58
2023/08/09 11:56:16;;;;;;;;;;;;;;;17.34;81.39;97940.97;5121231;27;19928;-60
2023/08/09 11:59:05;;;;;;;;;;;;;;;17.26;80.81;97942.75;5117502;27;19927;-60
2023/08/09 12:01:57;;;;;;;;;;;;;;;17.24;80.90;97942.28;5121428;27;19927;-58
2023/08/09 12:04:45;;;;;;;;;;;;;;;17.26;81.61;97940.00;5116695;27;19934;-59
2023/08/09 12:07:33;;;;;;;;;;;;;;;17.27;81.68;97944.34;5124559;27;19931;-58
2023/08/09 12:10:23;;;;;;;;;;;;;;;17.31;82.08;97952.66;5123777;27;20018;-57
2023/08/09 12:13:12;;;;;;;;;;;;;;;17.33;82.56;97955.84;5116257;27;19988;-61
2023/08/09 12:16:00;;;;;;;;;;;;;;;17.28;82.39;97962.41;5119306;27;19930;-58
2023/08/09 12:18:49;;;;;;;;;;;;;;;17.20;82.24;97962.56;5113707;27;19923;-60
2023/08/09 12:21:37;;;;;;;;;;;;;;;17.28;82.39;97958.84;5123046;27;19953;-59
2023/08/09 12:24:26;;;;;;;;;;;;;;;17.28;81.22;97962.41;5116125;27;19935;-58
2023/08/09 12:27:17;;;;;;;;;;;;;;;17.25;81.04;97962.31;5101316;27;20580;-58
2023/08/09 12:30:07;;;;;;;;;;;;;;;17.20;80.55;97974.34;5118089;27;19934;-57
2023/08/09 12:32:55;;;;;;;;;;;;;;;17.22;81.20;97974.81;5120067;27;19928;-58
2023/08/09 12:35:44;;;;;;;;;;;;;;;17.26;81.17;97972.94;5105361;27;19948;-58
2023/08/09 12:38:32;;;;;;;;;;;;;;;17.35;81.28;97978.25;5120313;27;19924;-58
2023/08/09 12:41:20;;;;;;;;;;;;;;;17.42;81.23;97970.22;5117636;27;19928;-58
2023/08/09 12:44:09;;;;;;;;;;;;;;;17.49;81.31;97977.81;5122249;27;19932;-58
2023/08/09 12:46:58;;;;;;;;;;;;;;;17.57;81.07;97982.31;5118331;27;20360;-58
2023/08/09 12:49:46;;;;;;;;;;;;;;;17.52;78.24;97986.16;5121314;27;19931;-59
2023/08/09 12:52:35;;;;;;;;;;;;;;;17.47;76.19;97988.34;5114313;27;19930;-59
2023/08/09 12:55:24;;;;;;;;;;;;;;;17.50;76.57;97993.13;5115916;27;19938;-58
2023/08/09 12:58:12;;;;;;;;;;;;;;;17.54;76.74;97992.09;5117988;27;20048;-58
2023/08/09 13:01:02;;;;;;;;;;;;;;;17.57;76.71;97996.06;5120892;27;19947;-58
2023/08/09 13:03:51;;;;;;;;;;;;;;;17.57;75.29;97982.31;5120344;27;19930;-59
2023/08/09 13:06:39;;;;;;;;;;;;;;;17.64;75.40;97989.97;5122560;27;20066;-58
2023/08/09 13:09:28;;;;;;;;;;;;;;;17.75;76.12;97988.28;5116283;27;20616;-58
2023/08/09 13:12:16;;;;;;;;;;;;;;;17.76;75.44;97993.41;5121104;27;19923;-58
2023/08/09 13:15:06;;;;;;;;;;;;;;;17.79;75.68;97991.94;5118027;27;19935;-59
2023/08/09 13:17:55;;;;;;;;;;;;;;;17.84;75.11;97999.88;5126042;27;19927;-58
2023/08/09 13:20:44;;;;;;;;;;;;;;;17.78;74.03;98007.59;5123012;27;20014;-58
2023/08/09 13:23:32;;;;;;;;;;;;;;;17.80;73.61;98001.75;5117180;27;19931;-58
2023/08/09 13:26:20;;;;;;;;;;;;;;;17.81;73.69;98008.84;5118996;27;19927;-58
2023/08/09 13:29:08;;;;;;;;;;;;;;;17.78;73.79;98010.34;5115133;27;19923;-58
2023/08/09 13:31:56;;;;;;;;;;;;;;;17.77;73.34;98007.94;5123180;27;19932;-59
2023/08/09 13:34:48;;;;;;;;;;;;;;;17.76;72.90;98017.34;5119496;27;19923;-57
2023/08/09 13:37:38;;;;;;;;;;;;;;;17.80;73.89;98013.53;5104468;27;19923;-57
2023/08/09 13:40:26;;;;;;;;;;;;;;;17.84;74.31;98010.06;5119194;27;20474;-58
2023/08/09 13:43:15;;;;;;;;;;;;;;;17.82;73.82;98018.69;5119405;27;20010;-58
2023/08/09 13:46:03;;;;;;;;;;;;;;;17.83;73.63;98012.03;5117577;27;19928;-60
2023/08/09 13:48:51;;;;;;;;;;;;;;;17.87;73.65;98006.63;5114643;27;20468;-58
2023/08/09 13:51:41;;;;;;;;;;;;;;;17.89;73.27;98012.53;5119558;27;20411;-58
2023/08/09 13:54:29;;;;;;;;;;;;;;;17.87;73.08;98009.38;5118552;27;19927;-60
2023/08/09 13:57:18;;;;;;;;;;;;;;;17.91;73.06;98010.25;5122885;27;19937;-59
2023/08/09 14:00:08;;;;;;;;;;;;;;;17.89;72.63;98018.03;5118061;27;19924;-59
2023/08/09 14:02:56;;;;;;;;;;;;;;;17.93;72.63;98027.97;5120791;27;19928;-59
2023/08/09 14:05:44;;;;;;;;;;;;;;;17.94;71.97;98026.81;5117342;27;19930;-60
2023/08/09 14:08:34;;;;;;;;;;;;;;;17.98;71.50;98021.41;5102635;28;20368;-59
2023/08/09 14:11:22;;;;;;;;;;;;;;;18.00;72.89;98033.66;5123005;27;20397;-59
2023/08/09 14:14:10;;;;;;;;;;;;;;;17.98;72.75;98033.19;5109084;27;19934;-58
2023/08/09 14:16:59;;;;;;;;;;;;;;;17.97;73.21;98028.84;5126127;27;19924;-60
2023/08/09 14:19:47;;;;;;;;;;;;;;;17.97;72.38;98028.06;5120476;27;19994;-59
2023/08/09 14:22:36;;;;;;;;;;;;;;;18.00;73.19;98028.16;5125956;27;19935;-58
2023/08/09 14:25:25;;;;;;;;;;;;;;;18.04;71.64;98033.72;5124751;27;19932;-57
2023/08/09 14:28:14;;;;;;;;;;;;;;;18.08;71.92;98022.81;5117897;27;19934;-58
2023/08/09 14:31:03;;;;;;;;;;;;;;;18.08;71.95;98034.59;5124158;27;19946;-61
2023/08/09 14:33:53;;;;;;;;;;;;;;;18.06;72.14;98031.44;5118720;27;19928;-58
2023/08/09 14:36:44;;;;;;;;;;;;;;;18.01;72.43;98026.19;5126647;27;20247;-58
2023/08/09 14:39:35;;;;;;;;;;;;;;;18.05;72.95;98029.81;5120623;27;19977;-58
2023/08/09 14:42:25;;;;;;;;;;;;;;;18.09;72.83;98038.94;5116087;27;19931;-62